createdAt,value
2019-05-16T07:15:33.274Z,220.00
2019-05-16T07:16:32.364Z,224.00
2019-05-16T07:17:32.344Z,236.00
2019-05-16T07:18:32.303Z,248.00
2019-05-16T07:19:35.291Z,264.00
2019-05-16T07:20:32.714Z,276.00
2019-05-16T07:21:32.163Z,296.00
2019-05-16T07:22:32.104Z,332.00
2019-05-16T07:23:32.057Z,384.00
2019-05-16T07:24:32.003Z,428.00
2019-05-16T07:25:31.939Z,456.00
2019-05-16T07:26:31.880Z,456.00
2019-05-16T07:27:31.834Z,440.00
2019-05-16T07:28:31.762Z,416.00
2019-05-16T07:29:31.721Z,404.00
2019-05-16T07:30:31.651Z,400.00
2019-05-16T07:31:31.594Z,396.00
2019-05-16T07:32:31.589Z,372.00
2019-05-16T07:33:31.529Z,356.00
2019-05-16T07:34:31.401Z,356.00
2019-05-16T07:35:31.380Z,348.00
2019-05-16T07:36:31.668Z,344.00
2019-05-16T07:37:31.667Z,336.00
2019-05-16T07:38:31.219Z,324.00
2019-05-16T07:39:31.089Z,304.00
2019-05-16T07:40:31.838Z,288.00
2019-05-16T07:41:31.181Z,280.00
2019-05-16T07:42:30.889Z,280.00
2019-05-16T07:43:31.189Z,288.00
2019-05-16T07:44:31.152Z,304.00
2019-05-16T07:45:30.918Z,332.00
2019-05-16T07:46:31.564Z,364.00
2019-05-16T07:47:31.069Z,392.00
2019-05-16T07:48:31.630Z,428.00
2019-05-16T07:49:30.612Z,468.00
2019-05-16T07:50:30.402Z,504.00
2019-05-16T07:51:31.056Z,540.00
2019-05-16T07:52:35.445Z,560.00
2019-05-16T07:54:21.389Z,576.00
2019-05-16T07:55:20.803Z,532.00
2019-05-16T07:56:20.530Z,492.00
2019-05-16T07:57:22.843Z,476.00
2019-05-16T07:58:21.675Z,476.00
2019-05-16T07:59:20.985Z,472.00
2019-05-16T08:00:21.651Z,476.00
